X  Tanca Dades meteorològiques de l'aviació METAR     LEAL Alicante-Elche Miguel Hernández Airport
Temperatura
12°C Temperatura
0°C Rosada
44% Humitat



Vent
11 KM/H
7 MPH
3 M/S
6 NUS



250°
OSO
Condicions actuals

Sense núvols Sense núvols
Pressió 1010.84 (hPa) - 29.85 (inHg)
Visibilitat 6 (milla) - 9.7 (km)
Aeroport
Codi aeroport LEAL

Ubicació: Alicante-Elche Miguel Hernández Airport
Distància: 14 (km)

Metar:
LEAL 240800Z 25006KT 210V290 CAVOK 12/00 Q1011 NOSIG

Temps: 24-02-2024 09:00 CET